New Orleans Nas Jrb/Alvin Callender Field/ Airport
KNBG : now visible

Airfield :











YOU CAN JOIN US ON...

 
LOGIN :

Register | Disclaimer

   EN    FR    IT 

 









Legend :    VFR   Marginal VFR   IFR   Intensive IFR   Very Intensive IFR
Visi :
Ceiling :
>= 8 km
>= 3000ft
5 to 8 km
1000 to 3000 ft
1500m to 5 km
500 to 1000 ft
800 to 1500m
200 to 500 ft
< 800m
< 200 ft
Symbols :   Thunderstorms  Fog  Heavy snow  Heavy precipitations  Wind > 20 kt







- Airport Elevation : 2 ft


KNBG - New Orleans Nas Jrb/Alvin Callender Field/

CURRENT METAR :
  • 252255Z 25009KT 10SM SCT020 24/21 A2974 RMK AO2 SLP069 T02390211 $

EXPIRED METARs :
  • 252155Z 25006KT 10SM FEW018 SCT250 24/22 A2973 RMK AO2 RAE18 TSE18 SLP065 OCNL LTGIC DSNT NE-S CB DSNT NE-S P0000 T02390217 $
  • 252119Z 00000KT 10SM FEW060 SCT095 BKN120 BKN250 20/19 A2973 RMK AO2 RAE18 TSE18 OCNL LTGIC DSNT NE-S CB DSNT NE-S P0000 T02000189 $
  • 252055Z 26004KT 6SM -TSRA BR FEW020CB BKN085 BKN110 BKN250 19/18 A2975 RMK AO2 PK WND 24026/1957 SLP074 OCNL LTGICCCCG N-NE AND S-SW TS N-NE AND S-SW MOV NE T1 SET P0024 60104 T01940178 58031 $

TAF TAF KNBG
Valid from the 25 at 23:00 until the 26 at 23:00 UTC


2523/2623 25008KT 9999 FEW020 SCT250 QNH2972INS
BECMG 2607/2609 33012KT 9999 FEW015 SCT050 QNH2985INS
BECMG 2615/2617 34012G22KT 9999 SKC QNH2992INS AUTOMATED SENSOR METWATCH 2604 TIL 2610 T12/2612Z T23/2621Z FN00213
KZHU FIR / North America



MET'MAP, your aeronautical weather chart ! - Copyright ORBIFLY December 2007 - Disclaimer

ORBIFLY MET'MAP TEAM :

Programming & Development : Alexandra Zaïnal
Concept & Development : Baudouin d'Aumeries
Co-Development & Prog : Marc-Olivier Méhu
Technical & hardware support : Manuel Goepfert

Contact : metmap@orbifly.com




SOURCES & CREDITS :

   NOAA       Earth
Advisory